Dublin, Texas
Current Conditions -  °F | °C
As of 7:55 AM on Monday 24 Nov 2014 (Local Time) from KSEP Reporting Station
Clear Clear  
Wind Chill:   Ceiling: Unl
Heat Index:   Visibility: 10mi
Dew Point: -1°   Wind: 8mph
Humidity: 59%   Direction: 320°NW
Pressure: 30.04"   Gusts: NA
Location:  32.09°N, 98.34°W
Report Text: KSEP 241355Z AUTO 32007KT 10SM CLR 06/M01 A3004 RMK AO2 T00631013
Loading
Personal Weather Stations






























Interactive Weather Map New forecast layout! Learn more

10-Day Weather Forecast

Advertisements
Track Severe Weather on mobile